Niagara Falls, NY (14301)

9:28 PM EDT on August 30, 2015 (GMT -0400)
37th st | | Change Station
CLOSE
Current Station
Personal Weather Station
Location: Niagara Falls, NY
Elevation: 577 ft
Nearby Weather Stations

Elev 577 ft 43.09 °N, 79.02 °W | Updated 2 minutes ago

Partly Cloudy
Partly Cloudy
71.8 °F
Feels Like 71 °F
N
0.0
Wind Variable Wind from NW

Today
High -- | Low -- °F
--% Chance of Precip.
Yesterday
High -- | Low -- °F
Precip. -- in
6:38 AM 7:54 PM
Full, 98% visible
Pressure 30.02 in
Visibility 10.0 miles
Clouds Few 20000 ft
Few 25000 ft
Heat Index 71 °F
Dew Point 67 °F
Humidity 85%
Rainfall 0.00 in
Snow Depth Not available.
UV 0 out of 12
Pollen 10.00 out of 12
Air Quality Not available.
Flu Activity Not available.
METAR KIAG 310053Z 20008KT 10SM FEW200 FEW250 22/18 A3003 RMK AO2 SLP165 T02170183
Pressure 30.02 in
Visibility 10.0 miles
Clouds Few 20000 ft
Few 25000 ft
Heat Index 71 °F
Dew Point 67 °F
Humidity 85%
Rainfall 0.00 in
Snow Depth Not available.
UV 0 out of 12
Pollen 10.00 out of 12
Air Quality Not available.
Flu Activity Not available.
METAR KIAG 310053Z 20008KT 10SM FEW200 FEW250 22/18 A3003 RMK AO2 SLP165 T02170183

10-Day Weather Forecast

×

Almanac

Astronomy

Aug. 30, 2015 Rise Set
Actual Time
Civil Twilight
Nautical Twilight
Astronomical Twilight
Moon
Length of Visible Light
Length of Day
Tomorrow will be .
, % of the Moon is Illuminated

Today's Extremes

State Highs State Lows

Community

WunderPhotos

Upload Photos

1,851,130 photos uploaded!

WunderBlogs® & News

Nearby

Air Quality

  Air Quality AQ Index Pollutant
Not available.

Snow Depth

Station Depth Elevation

Earthquake Activity

City Distance Mag. Time & Date
Minimum magnitude displayed is 2.5.

Coastal Water Temperatures

Place Temperature

Stations

Nearby Weather Stations

Station Location Temp. Windchill Dew Point Humidity Wind Precip. Elev Updated Type